createdAt,value
2022-10-29T00:01:28.599Z,4.03
2022-10-29T00:03:55.653Z,3.95
2022-10-29T00:06:22.637Z,4.32
2022-10-29T00:08:49.597Z,3.63
2022-10-29T00:11:20.106Z,3.22
2022-10-29T00:13:49.375Z,3.75
2022-10-29T00:16:19.952Z,3.88
2022-10-29T00:18:47.451Z,3.55
2022-10-29T00:21:17.310Z,5.35
2022-10-29T00:23:44.744Z,3.65
2022-10-29T00:26:12.762Z,3.78
2022-10-29T00:28:40.176Z,3.90
2022-10-29T00:31:11.505Z,4.05
2022-10-29T00:33:38.535Z,3.70
2022-10-29T00:36:08.378Z,3.83
2022-10-29T00:38:35.820Z,3.05
2022-10-29T00:41:05.214Z,3.47
2022-10-29T00:43:37.728Z,3.70
2022-10-29T00:46:35.482Z,3.08
2022-10-29T00:49:02.985Z,3.83
2022-10-29T00:51:32.581Z,3.83
2022-10-29T00:54:06.627Z,3.20
2022-10-29T00:56:38.149Z,3.75
2022-10-29T00:59:06.871Z,3.78
2022-10-29T01:01:34.017Z,3.33
2022-10-29T01:04:01.542Z,3.58
2022-10-29T01:06:30.244Z,3.58
2022-10-29T01:08:57.464Z,3.05
2022-10-29T01:11:30.578Z,3.10
2022-10-29T01:14:12.402Z,2.97
2022-10-29T01:17:17.858Z,2.92
2022-10-29T01:20:39.129Z,3.13
2022-10-29T01:23:34.599Z,3.17
2022-10-29T01:26:04.291Z,3.40
2022-10-29T01:28:55.519Z,3.00
2022-10-29T01:31:49.156Z,3.40
2022-10-29T01:34:29.046Z,3.35
2022-10-29T01:37:07.866Z,2.78
2022-10-29T01:39:34.808Z,2.70
2022-10-29T01:42:07.883Z,3.45
2022-10-29T01:44:44.079Z,3.55
2022-10-29T01:47:21.914Z,3.00
2022-10-29T01:49:54.571Z,2.75
2022-10-29T01:52:23.110Z,3.58
2022-10-29T01:54:50.101Z,2.90
2022-10-29T01:57:26.011Z,3.60
2022-10-29T01:59:56.036Z,3.05
2022-10-29T02:02:43.321Z,2.85
2022-10-29T02:05:43.412Z,2.67
2022-10-29T02:08:38.442Z,3.05
2022-10-29T02:11:25.879Z,3.28
2022-10-29T02:14:19.756Z,3.17
2022-10-29T02:16:47.787Z,2.80
2022-10-29T02:19:14.802Z,2.50
2022-10-29T02:21:42.606Z,2.35
2022-10-29T02:24:09.807Z,2.63
2022-10-29T02:26:37.101Z,2.33
2022-10-29T02:29:04.151Z,2.67
2022-10-29T02:31:31.347Z,2.40
2022-10-29T02:33:58.302Z,2.33
2022-10-29T02:36:25.442Z,2.83
2022-10-29T02:38:52.390Z,2.50
2022-10-29T02:41:19.361Z,2.30
2022-10-29T02:43:46.335Z,2.30
2022-10-29T02:46:19.421Z,2.50
2022-10-29T02:48:47.007Z,2.22
2022-10-29T02:51:14.798Z,2.53
2022-10-29T02:53:41.846Z,2.85
2022-10-29T02:56:09.878Z,2.22
2022-10-29T02:58:37.324Z,2.72
2022-10-29T03:01:05.172Z,2.95
2022-10-29T03:03:32.589Z,2.80
2022-10-29T03:05:59.791Z,2.65
2022-10-29T03:08:26.829Z,2.28
2022-10-29T03:10:57.417Z,2.50
2022-10-29T03:13:24.446Z,2.60
2022-10-29T03:15:51.516Z,2.40
2022-10-29T03:18:18.489Z,2.70
2022-10-29T03:20:47.536Z,2.45
2022-10-29T03:23:14.561Z,3.10
2022-10-29T03:25:41.553Z,2.55
2022-10-29T03:28:08.629Z,2.90
2022-10-29T03:30:35.572Z,2.63
2022-10-29T03:33:02.481Z,2.42
2022-10-29T03:35:29.427Z,2.80
2022-10-29T03:37:56.383Z,2.58
2022-10-29T03:40:23.316Z,3.10
2022-10-29T03:42:50.221Z,2.75
2022-10-29T03:45:17.244Z,2.97
2022-10-29T03:47:44.793Z,2.40
2022-10-29T03:50:12.141Z,3.63
2022-10-29T03:52:39.286Z,3.55
2022-10-29T03:55:07.661Z,3.55
2022-10-29T03:57:34.687Z,2.92
2022-10-29T04:00:04.845Z,2.60
2022-10-29T04:02:39.891Z,2.40
2022-10-29T04:05:07.334Z,2.20
2022-10-29T04:07:34.420Z,2.70
2022-10-29T04:10:01.419Z,2.83
2022-10-29T04:12:28.380Z,2.63
2022-10-29T04:14:55.343Z,2.33
2022-10-29T04:17:22.340Z,2.20
2022-10-29T04:19:49.338Z,2.00
2022-10-29T04:24:18.804Z,2.13
2022-10-29T04:30:37.422Z,1.95
2022-10-29T04:33:04.438Z,1.85
2022-10-29T04:35:31.418Z,2.35
2022-10-29T04:37:58.364Z,1.92
2022-10-29T04:40:26.158Z,1.92
2022-10-29T04:42:53.284Z,2.08
2022-10-29T04:45:20.389Z,2.42
2022-10-29T04:47:47.449Z,2.72
2022-10-29T04:50:15.327Z,2.70
2022-10-29T04:52:43.101Z,1.90
2022-10-29T04:55:10.079Z,1.95
2022-10-29T04:57:37.108Z,2.35
2022-10-29T05:00:04.720Z,2.72
2022-10-29T05:02:31.716Z,2.50
2022-10-29T05:04:58.695Z,2.30
2022-10-29T05:07:25.696Z,2.50
2022-10-29T05:09:52.668Z,2.30
2022-10-29T05:12:19.647Z,2.70
2022-10-29T05:14:46.678Z,4.13
2022-10-29T05:17:13.675Z,3.20
2022-10-29T05:19:40.611Z,3.25
2022-10-29T05:22:07.539Z,3.10
2022-10-29T05:24:34.528Z,3.03
2022-10-29T05:27:02.229Z,2.55
2022-10-29T05:29:29.204Z,2.20
2022-10-29T05:31:56.130Z,2.75
2022-10-29T05:34:23.101Z,2.45
2022-10-29T05:36:50.097Z,2.20
2022-10-29T05:39:17.250Z,2.40
2022-10-29T05:41:44.227Z,2.20
2022-10-29T05:44:11.114Z,2.33
2022-10-29T05:46:38.708Z,3.13
2022-10-29T05:49:06.023Z,2.85
2022-10-29T05:51:33.166Z,2.33
2022-10-29T05:54:00.258Z,3.75
2022-10-29T05:56:27.516Z,2.40
2022-10-29T05:58:54.620Z,2.97
2022-10-29T06:01:21.749Z,2.85
2022-10-29T06:03:48.905Z,2.97
2022-10-29T06:06:15.882Z,3.15
2022-10-29T06:08:42.930Z,4.10
2022-10-29T06:11:09.882Z,4.57
2022-10-29T06:13:36.907Z,3.80
2022-10-29T06:16:04.064Z,4.63
2022-10-29T06:18:31.092Z,4.10
2022-10-29T06:21:00.380Z,3.60
2022-10-29T06:23:28.456Z,3.30
2022-10-29T06:25:55.445Z,3.83
2022-10-29T06:28:22.361Z,3.28
2022-10-29T06:30:51.015Z,3.35
2022-10-29T06:33:19.046Z,2.97
2022-10-29T06:35:46.673Z,4.13
2022-10-29T06:38:14.197Z,4.03
2022-10-29T06:40:43.246Z,4.25
2022-10-29T06:43:12.391Z,4.40
2022-10-29T06:45:39.487Z,5.32
2022-10-29T06:48:07.741Z,8.02
2022-10-29T06:50:35.304Z,7.68
2022-10-29T06:53:04.401Z,7.57
2022-10-29T06:55:33.006Z,6.72
2022-10-29T06:58:10.770Z,7.45
2022-10-29T07:00:37.913Z,7.95
2022-10-29T07:03:05.228Z,6.43
2022-10-29T07:05:33.114Z,7.63
2022-10-29T07:08:01.441Z,5.28
2022-10-29T07:10:31.097Z,4.47
2022-10-29T07:12:58.400Z,5.40
2022-10-29T07:15:27.509Z,4.40
2022-10-29T07:18:02.078Z,5.47
2022-10-29T07:20:30.766Z,5.03
2022-10-29T07:22:58.205Z,4.60
2022-10-29T07:25:26.088Z,4.30
2022-10-29T07:27:53.156Z,4.05
2022-10-29T07:30:20.774Z,4.68
2022-10-29T07:32:47.769Z,4.15
2022-10-29T07:35:14.739Z,4.03
2022-10-29T07:37:41.652Z,4.30
2022-10-29T07:40:09.291Z,4.40
2022-10-29T07:42:36.227Z,4.45
2022-10-29T07:45:03.235Z,5.38
2022-10-29T07:47:30.719Z,5.47
2022-10-29T07:49:58.142Z,5.03
2022-10-29T07:52:25.361Z,4.65
2022-10-29T07:54:52.321Z,3.88
2022-10-29T07:57:19.323Z,5.05
2022-10-29T07:59:47.064Z,4.82
2022-10-29T08:02:14.087Z,4.75
2022-10-29T08:04:41.023Z,3.83
2022-10-29T08:07:07.932Z,5.35
2022-10-29T08:09:34.932Z,4.10
2022-10-29T08:12:01.863Z,4.18
2022-10-29T08:14:28.927Z,4.05
2022-10-29T08:16:55.878Z,3.70
2022-10-29T08:19:22.946Z,4.30
2022-10-29T08:21:49.922Z,3.80
2022-10-29T08:24:16.908Z,4.60
2022-10-29T08:26:43.912Z,4.82
2022-10-29T08:29:10.835Z,4.53
2022-10-29T08:31:37.764Z,4.43
2022-10-29T08:34:09.997Z,4.15
2022-10-29T08:36:38.081Z,4.30
2022-10-29T08:39:05.032Z,5.38
2022-10-29T08:41:36.622Z,5.03
2022-10-29T08:44:15.620Z,4.78
2022-10-29T08:46:52.254Z,5.43
2022-10-29T08:49:26.351Z,5.18
2022-10-29T08:52:12.163Z,5.90
2022-10-29T08:54:42.101Z,5.30
2022-10-29T08:57:15.638Z,5.53
2022-10-29T09:02:40.602Z,6.18
2022-10-29T09:05:20.682Z,6.32
2022-10-29T09:08:01.202Z,7.75
2022-10-29T09:10:53.931Z,8.45
2022-10-29T09:13:39.262Z,8.90
2022-10-29T09:16:21.327Z,10.88
2022-10-29T09:19:05.987Z,10.95
2022-10-29T09:21:36.878Z,10.15
2022-10-29T09:26:51.181Z,12.32
2022-10-29T09:29:46.103Z,11.90
2022-10-29T09:32:25.206Z,12.23
2022-10-29T09:35:01.608Z,11.32
2022-10-29T09:37:57.445Z,11.27
2022-10-29T09:40:24.495Z,13.02
2022-10-29T09:42:52.891Z,12.82
2022-10-29T09:45:27.430Z,13.85
2022-10-29T09:48:00.958Z,16.10
2022-10-29T09:50:52.463Z,14.45
2022-10-29T09:53:19.532Z,14.68
2022-10-29T09:55:53.735Z,14.98
2022-10-29T10:54:42.022Z,18.80
2022-10-29T10:57:12.257Z,18.00
2022-10-29T10:59:58.761Z,18.75
2022-10-29T11:02:48.527Z,17.35
2022-10-29T11:08:11.048Z,17.98
2022-10-29T11:13:18.293Z,17.50
2022-10-29T11:15:55.219Z,17.58
2022-10-29T11:18:38.051Z,17.42
2022-10-29T11:21:15.504Z,18.58
2022-10-29T11:29:42.938Z,18.98
2022-10-29T11:39:57.638Z,18.60
2022-10-29T14:53:34.982Z,9.98
2022-10-29T14:56:09.152Z,9.60
2022-10-29T14:58:38.190Z,10.30
2022-10-29T15:01:12.353Z,9.82
2022-10-29T15:03:39.782Z,12.13
2022-10-29T15:06:15.809Z,12.77
2022-10-29T15:08:46.122Z,11.25
2022-10-29T15:11:33.323Z,9.98
2022-10-29T15:14:01.520Z,12.18
2022-10-29T15:16:29.579Z,10.50
2022-10-29T15:18:58.084Z,8.23
2022-10-29T15:21:31.823Z,8.90
2022-10-29T15:24:06.558Z,10.10
2022-10-29T15:26:36.164Z,8.70
2022-10-29T15:29:10.631Z,9.10
2022-10-29T15:31:46.648Z,8.63
2022-10-29T15:34:40.552Z,9.35
2022-10-29T15:37:22.792Z,10.02
2022-10-29T15:39:55.691Z,11.40
2022-10-29T15:42:28.402Z,9.90
2022-10-29T15:45:19.202Z,8.90
2022-10-29T15:47:49.351Z,8.23
2022-10-29T15:50:26.162Z,10.10
2022-10-29T15:52:56.837Z,9.40
2022-10-29T15:55:27.573Z,9.77
2022-10-29T15:58:06.455Z,10.45
2022-10-29T16:00:33.820Z,11.60
2022-10-29T16:03:22.306Z,19.75
2022-10-29T16:06:02.161Z,12.32
2022-10-29T16:08:36.566Z,10.82
2022-10-29T16:11:07.838Z,12.60
2022-10-29T16:13:35.326Z,13.40
2022-10-29T16:16:02.580Z,12.43
2022-10-29T16:18:29.584Z,11.63
2022-10-29T16:20:59.377Z,10.55
2022-10-29T16:23:26.594Z,12.18
2022-10-29T16:25:53.658Z,10.85
2022-10-29T16:28:20.788Z,11.77
2022-10-29T16:30:56.782Z,11.80
2022-10-29T16:33:23.785Z,11.18
2022-10-29T16:35:50.757Z,11.70
2022-10-29T16:38:18.979Z,11.27
2022-10-29T16:40:45.945Z,10.93
2022-10-29T16:43:12.890Z,11.77
2022-10-29T16:45:39.924Z,12.30
2022-10-29T16:48:07.776Z,11.15
2022-10-29T16:50:35.273Z,12.48
2022-10-29T16:53:12.274Z,13.05
2022-10-29T16:55:40.785Z,11.88
2022-10-29T16:58:13.237Z,11.38
2022-10-29T17:00:40.593Z,11.30
2022-10-29T17:03:11.409Z,10.95
2022-10-29T17:05:41.761Z,11.25
2022-10-29T17:08:09.169Z,11.10
2022-10-29T17:10:36.632Z,11.52
2022-10-29T17:13:03.931Z,12.00
2022-10-29T17:15:30.889Z,11.90
2022-10-29T17:17:58.419Z,12.70
2022-10-29T17:20:25.727Z,12.00
2022-10-29T17:22:53.202Z,12.27
2022-10-29T17:25:20.162Z,13.00
2022-10-29T17:27:47.299Z,10.82
2022-10-29T17:30:14.352Z,12.85
2022-10-29T17:32:41.278Z,13.15
2022-10-29T17:35:08.455Z,13.13
2022-10-29T17:37:35.402Z,12.15
2022-10-29T17:40:06.732Z,13.00
2022-10-29T17:42:35.303Z,12.03
2022-10-29T17:45:02.230Z,13.02
2022-10-29T17:47:30.875Z,13.07
2022-10-29T17:49:58.134Z,12.70
2022-10-29T17:52:25.162Z,13.57
2022-10-29T17:54:52.128Z,14.93
2022-10-29T17:57:19.077Z,14.02
2022-10-29T17:59:46.110Z,13.35
2022-10-29T18:02:13.279Z,13.88
2022-10-29T18:04:40.426Z,14.35
2022-10-29T18:07:07.479Z,12.77
2022-10-29T18:09:34.448Z,12.68
2022-10-29T18:12:01.413Z,14.02
2022-10-29T18:14:28.360Z,13.02
2022-10-29T18:16:55.333Z,13.00
2022-10-29T18:19:22.300Z,13.55
2022-10-29T18:21:49.296Z,13.23
2022-10-29T18:24:16.379Z,12.63
2022-10-29T18:26:43.354Z,13.23
2022-10-29T18:29:12.153Z,13.07
2022-10-29T18:31:42.279Z,12.68
2022-10-29T18:34:09.740Z,11.93
2022-10-29T18:36:37.070Z,13.43
2022-10-29T18:39:06.160Z,11.07
2022-10-29T18:41:34.242Z,12.23
2022-10-29T18:44:01.260Z,10.70
2022-10-29T18:46:28.355Z,11.23
2022-10-29T18:48:56.301Z,11.70
2022-10-29T18:51:29.127Z,10.95
2022-10-29T18:54:00.344Z,10.82
2022-10-29T18:56:28.598Z,11.52
2022-10-29T18:58:56.735Z,11.57
2022-10-29T19:01:31.371Z,10.57
2022-10-29T19:04:04.793Z,10.93
2022-10-29T19:06:33.745Z,10.38
2022-10-29T19:09:02.889Z,10.27
2022-10-29T19:11:30.212Z,10.45
2022-10-29T19:13:59.263Z,9.30
2022-10-29T19:16:26.849Z,10.00
2022-10-29T19:19:01.576Z,9.20
2022-10-29T19:21:28.902Z,9.68
2022-10-29T19:23:57.393Z,7.80
2022-10-29T19:26:30.225Z,8.07
2022-10-29T19:29:00.164Z,7.80
2022-10-29T19:31:29.679Z,7.22
2022-10-29T19:33:58.993Z,6.93
2022-10-29T19:36:27.143Z,6.38
2022-10-29T19:38:54.698Z,6.90
2022-10-29T19:41:21.700Z,6.95
2022-10-29T19:43:48.693Z,7.28
2022-10-29T19:46:18.106Z,7.50
2022-10-29T19:48:56.378Z,6.43
2022-10-29T19:51:24.011Z,6.13
2022-10-29T19:53:51.700Z,6.32
2022-10-29T19:56:20.703Z,5.55
2022-10-29T19:58:51.305Z,6.15
2022-10-29T20:01:19.065Z,6.45
2022-10-29T20:03:46.974Z,5.95
2022-10-29T20:06:14.934Z,5.22
2022-10-29T20:08:41.888Z,5.85
2022-10-29T20:11:09.062Z,5.45
2022-10-29T20:13:36.739Z,4.70
2022-10-29T20:16:09.239Z,5.63
2022-10-29T20:18:38.200Z,5.35
2022-10-29T20:23:37.505Z,4.78
2022-10-29T20:26:04.769Z,5.32
2022-10-29T20:28:31.863Z,5.47
2022-10-29T20:31:30.438Z,5.10
2022-10-29T20:34:00.008Z,5.63
2022-10-29T20:36:32.021Z,5.90
2022-10-29T20:38:59.280Z,4.50
2022-10-29T20:41:26.832Z,4.80
2022-10-29T20:43:56.735Z,4.43
2022-10-29T20:46:24.852Z,4.30
2022-10-29T20:48:52.669Z,5.25
2022-10-29T20:51:20.107Z,4.65
2022-10-29T20:53:47.075Z,4.18
2022-10-29T20:56:16.346Z,3.78
2022-10-29T20:58:44.091Z,3.95
2022-10-29T21:01:14.186Z,4.82
2022-10-29T21:03:41.766Z,4.88
2022-10-29T21:06:13.967Z,4.20
2022-10-29T21:08:44.350Z,3.80
2022-10-29T21:11:13.377Z,4.00
2022-10-29T21:13:40.496Z,4.55
2022-10-29T21:16:18.504Z,3.72
2022-10-29T21:18:48.028Z,3.58
2022-10-29T21:21:15.366Z,4.45
2022-10-29T21:23:42.488Z,3.90
2022-10-29T21:26:17.686Z,4.50
2022-10-29T21:28:45.162Z,4.13
2022-10-29T21:31:12.085Z,4.05
2022-10-29T21:33:39.377Z,3.92
2022-10-29T21:36:06.535Z,3.58
2022-10-29T21:38:33.884Z,4.07
2022-10-29T21:41:02.243Z,4.45
2022-10-29T21:43:29.240Z,4.88
2022-10-29T21:45:56.236Z,4.60
2022-10-29T21:48:27.012Z,4.22
2022-10-29T21:51:09.801Z,4.47
2022-10-29T21:53:36.780Z,4.65
2022-10-29T21:56:06.374Z,3.72
2022-10-29T21:58:34.114Z,4.45
2022-10-29T22:01:11.628Z,3.97
2022-10-29T22:03:42.928Z,3.35
2022-10-29T22:06:15.232Z,3.67
2022-10-29T22:08:43.091Z,3.58
2022-10-29T22:11:11.217Z,3.83
2022-10-29T22:13:38.852Z,4.25
2022-10-29T22:16:08.336Z,4.13
2022-10-29T22:18:36.142Z,4.00
2022-10-29T22:21:07.240Z,3.90
2022-10-29T22:23:34.359Z,4.40
2022-10-29T22:26:01.589Z,4.00
2022-10-29T22:28:28.616Z,3.92
2022-10-29T22:31:00.442Z,3.85
2022-10-29T22:33:28.269Z,3.72
2022-10-29T22:35:55.493Z,4.15
2022-10-29T22:38:22.483Z,3.70
2022-10-29T22:40:49.398Z,3.38
2022-10-29T22:43:16.514Z,3.55
2022-10-29T22:45:46.213Z,3.88
2022-10-29T22:48:13.598Z,4.15
2022-10-29T22:50:40.895Z,4.60
2022-10-29T22:53:07.879Z,3.50
2022-10-29T22:55:34.857Z,3.50
2022-10-29T22:58:01.832Z,4.03
2022-10-29T23:00:28.820Z,3.28
2022-10-29T23:02:56.114Z,3.60
2022-10-29T23:05:23.342Z,4.25
2022-10-29T23:07:50.268Z,3.92
2022-10-29T23:10:17.239Z,3.47
2022-10-29T23:12:44.146Z,3.35
2022-10-29T23:15:11.211Z,3.65
2022-10-29T23:17:38.285Z,3.55
2022-10-29T23:20:05.480Z,4.55
2022-10-29T23:22:32.401Z,3.72
2022-10-29T23:24:59.305Z,4.10
2022-10-29T23:27:26.276Z,4.30
2022-10-29T23:29:53.159Z,4.55
2022-10-29T23:32:20.089Z,4.20
2022-10-29T23:34:47.013Z,3.20
2022-10-29T23:37:13.922Z,3.45
2022-10-29T23:39:40.856Z,4.13
2022-10-29T23:42:07.785Z,3.92
2022-10-29T23:44:34.710Z,4.00
2022-10-29T23:47:01.571Z,3.60
2022-10-29T23:49:28.962Z,4.35
2022-10-29T23:51:56.083Z,3.55
2022-10-29T23:54:23.037Z,3.60
2022-10-29T23:56:50.001Z,3.38
2022-10-29T23:59:17.038Z,3.67
